Time;durP1;ratioP1;P1;durP2;ratioP2;P2;SDS_P1;SDS_P2;PMS_P1;PMS_P2;Temp;Humidity;BMP_temperature;BMP_pressure;BME280_temperature;BME280_humidity;BME280_pressure;Samples;Min_cycle;Max_cycle;Signal;HPM_P1;HPM_P2
2023/08/07 00:00:52;;;;;;;3.27;1.60;;;;;;;19.06;84.53;94640.22;4932736;29;20234;-69
2023/08/07 00:03:18;;;;;;;1.50;1.40;;;;;;;19.25;84.00;94628.09;4944729;28;20248;-70
2023/08/07 00:05:47;;;;;;;1.63;1.50;;;;;;;19.15;84.10;94628.88;4984640;28;20226;-68
2023/08/07 00:08:13;;;;;;;2.77;1.70;;;;;;;19.09;84.85;94624.56;4920385;28;20230;-70
2023/08/07 00:10:38;;;;;;;2.77;1.50;;;;;;;18.99;85.58;94631.69;4959373;28;20243;-69
2023/08/07 00:13:04;;;;;;;1.80;1.50;;;;;;;19.15;84.77;94628.88;4931654;29;20257;-69
2023/08/07 00:15:29;;;;;;;3.53;1.60;;;;;;;19.22;83.09;94633.94;4918028;28;20232;-68
2023/08/07 00:17:55;;;;;;;1.70;1.60;;;;;;;19.27;82.99;94632.06;4986918;28;20267;-69
2023/08/07 00:20:20;;;;;;;2.13;1.50;;;;;;;19.14;83.49;94634.41;4919567;29;20248;-70
2023/08/07 00:22:46;;;;;;;1.93;1.60;;;;;;;19.10;84.31;94636.00;4946925;28;20233;-69
2023/08/07 00:25:11;;;;;;;2.03;1.60;;;;;;;18.95;85.51;94638.56;4918608;28;20238;-69
2023/08/07 00:27:37;;;;;;;1.83;1.65;;;;;;;19.07;84.48;94633.84;4931745;29;20242;-69
2023/08/07 00:30:02;;;;;;;1.90;1.70;;;;;;;19.14;83.07;94631.75;4993726;28;20379;-69
2023/08/07 00:32:28;;;;;;;2.30;1.80;;;;;;;19.17;82.68;94632.06;4955271;28;20725;-70
2023/08/07 00:34:53;;;;;;;2.60;1.83;;;;;;;19.27;82.16;94631.28;4932187;28;20286;-69
2023/08/07 00:37:19;;;;;;;1.90;1.70;;;;;;;19.16;82.22;94635.75;4926875;29;20237;-70
2023/08/07 00:39:44;;;;;;;2.00;1.80;;;;;;;19.20;81.56;94642.13;4929530;28;20238;-69
2023/08/07 00:42:10;;;;;;;1.85;1.70;;;;;;;19.23;82.25;94638.16;4937369;28;20237;-69
2023/08/07 00:44:35;;;;;;;2.47;1.90;;;;;;;19.07;82.11;94645.28;4944271;28;20268;-69
2023/08/07 00:47:01;;;;;;;2.07;1.80;;;;;;;19.18;82.21;94636.28;4938993;28;20302;-69
2023/08/07 00:49:26;;;;;;;3.47;1.80;;;;;;;18.98;83.43;94646.81;4936649;28;20237;-69
2023/08/07 00:51:52;;;;;;;3.77;1.90;;;;;;;19.02;82.81;94634.63;4955979;28;20244;-69
2023/08/07 00:54:18;;;;;;;3.23;1.90;;;;;;;18.67;84.40;94648.50;4937724;28;20252;-69
2023/08/07 00:56:44;;;;;;;2.47;2.03;;;;;;;18.31;86.06;94654.59;4933276;28;20236;-69
2023/08/07 00:59:09;;;;;;;2.17;1.90;;;;;;;18.63;85.76;94658.00;4938339;28;20254;-70
2023/08/07 01:01:36;;;;;;;3.53;1.77;;;;;;;18.37;88.02;94663.34;4948530;28;20240;-70
2023/08/07 01:04:01;;;;;;;2.10;1.87;;;;;;;18.33;87.75;94673.66;4942254;28;20231;-70
2023/08/07 01:06:27;;;;;;;2.67;2.10;;;;;;;18.35;87.25;94674.22;4945292;28;20620;-70
2023/08/07 01:08:52;;;;;;;3.27;2.00;;;;;;;18.46;86.27;94673.25;4949359;28;20229;-68
2023/08/07 01:11:29;;;;;;;2.30;2.10;;;;;;;18.78;84.43;94681.97;4938783;28;20263;-69
2023/08/07 01:14:00;;;;;;;3.30;2.20;;;;;;;18.49;86.47;94682.56;4950206;28;20228;-70
2023/08/07 01:16:33;;;;;;;2.97;2.50;;;;;;;18.60;85.62;94693.00;4961617;28;20238;-68
2023/08/07 01:19:00;;;;;;;2.77;2.17;;;;;;;18.70;85.49;94690.41;4950222;28;20236;-77
2023/08/07 01:21:25;;;;;;;3.20;2.57;;;;;;;18.78;84.77;94692.59;4956549;28;20302;-76
2023/08/07 01:23:51;;;;;;;3.53;2.70;;;;;;;18.82;84.45;94691.00;4950141;28;20240;-74
2023/08/07 01:26:18;;;;;;;3.10;2.77;;;;;;;18.78;84.91;94703.19;4937937;28;20240;-76
2023/08/07 01:28:49;;;;;;;2.90;2.70;;;;;;;18.79;84.09;94685.44;4920889;28;20716;-77
2023/08/07 01:31:15;;;;;;;3.27;2.60;;;;;;;18.68;85.37;94689.84;4939009;28;20633;-76
2023/08/07 01:33:49;;;;;;;3.53;2.80;;;;;;;18.64;86.15;94686.13;4942934;28;20237;-76
2023/08/07 01:36:14;;;;;;;3.30;3.00;;;;;;;18.78;85.19;94678.53;4950885;28;20259;-76
2023/08/07 01:38:40;;;;;;;3.43;3.13;;;;;;;18.64;85.97;94678.19;4950691;28;20244;-76
2023/08/07 01:41:05;;;;;;;3.00;2.70;;;;;;;18.55;86.92;94687.66;4939267;28;20245;-76
2023/08/07 01:43:32;;;;;;;4.50;3.10;;;;;;;18.56;86.14;94676.00;4953694;28;20805;-76
2023/08/07 01:45:58;;;;;;;3.50;3.10;;;;;;;18.67;85.52;94667.06;4964669;28;20253;-77
2023/08/07 01:48:23;;;;;;;3.20;2.90;;;;;;;18.66;85.89;94673.41;4925805;28;20260;-76
2023/08/07 01:50:49;;;;;;;3.67;2.97;;;;;;;18.46;87.39;94672.47;4950830;28;20236;-76
2023/08/07 01:53:15;;;;;;;3.20;2.90;;;;;;;18.71;85.94;94670.78;4950250;28;20255;-76
2023/08/07 01:55:40;;;;;;;5.70;3.07;;;;;;;18.78;85.26;94674.03;4934466;28;20268;-75
2023/08/07 01:58:06;;;;;;;3.27;2.97;;;;;;;18.77;85.56;94672.41;4948426;28;20249;-77
2023/08/07 02:00:31;;;;;;;4.40;3.50;;;;;;;18.79;85.62;94677.47;4938662;28;20236;-80
2023/08/07 02:02:57;;;;;;;3.67;3.20;;;;;;;18.71;85.88;94686.72;4938974;28;20717;-77
2023/08/07 02:05:22;;;;;;;3.40;3.10;;;;;;;18.61;85.70;94686.63;4971782;28;20228;-76
2023/08/07 02:07:48;;;;;;;4.53;3.00;;;;;;;18.61;85.73;94694.59;4935225;28;20252;-75
2023/08/07 02:10:13;;;;;;;4.83;3.20;;;;;;;18.55;86.10;94702.75;4937905;28;20232;-76
2023/08/07 02:12:39;;;;;;;3.50;3.20;;;;;;;18.49;86.31;94691.31;4944107;28;20240;-76
2023/08/07 02:15:05;;;;;;;3.70;3.17;;;;;;;18.59;85.50;94691.38;4944802;28;20239;-75
2023/08/07 02:17:31;;;;;;;3.40;2.87;;;;;;;18.50;86.31;94698.22;4949317;28;20264;-76
2023/08/07 02:19:56;;;;;;;3.83;3.17;;;;;;;18.59;85.90;94694.03;4948062;28;20255;-77
2023/08/07 02:22:22;;;;;;;3.50;3.20;;;;;;;18.57;86.30;94703.31;4931895;28;20663;-76
2023/08/07 02:24:48;;;;;;;3.50;3.20;;;;;;;18.60;86.38;94705.44;4946341;28;20335;-76
2023/08/07 02:27:13;;;;;;;3.90;3.20;;;;;;;18.57;86.21;94706.75;4938904;28;20747;-75
2023/08/07 02:29:39;;;;;;;4.83;3.40;;;;;;;18.55;86.72;94703.56;4937820;28;20232;-76
2023/08/07 02:32:04;;;;;;;3.77;3.10;;;;;;;18.39;87.50;94707.09;4946551;28;20289;-77
2023/08/07 02:34:30;;;;;;;5.97;3.40;;;;;;;18.34;87.55;94717.66;4948476;28;20248;-76
2023/08/07 02:36:56;;;;;;;5.47;3.33;;;;;;;18.36;87.33;94704.16;4936710;28;20239;-77
2023/08/07 02:39:22;;;;;;;3.90;3.33;;;;;;;18.34;87.97;94707.06;4950949;28;20252;-75
2023/08/07 02:41:48;;;;;;;5.07;3.50;;;;;;;18.26;87.18;94707.53;4945338;28;20240;-76
2023/08/07 02:44:13;;;;;;;4.30;3.30;;;;;;;18.32;87.25;94703.84;4937569;28;20323;-77
2023/08/07 02:46:39;;;;;;;3.97;3.57;;;;;;;18.36;88.58;94704.97;4931992;28;20733;-78
2023/08/07 02:49:04;;;;;;;3.80;3.30;;;;;;;18.47;87.08;94704.03;4935748;28;20239;-76
2023/08/07 02:51:30;;;;;;;3.70;3.20;;;;;;;18.31;86.99;94715.53;4948860;28;20233;-75
2023/08/07 02:53:56;;;;;;;4.90;3.50;;;;;;;18.39;86.62;94715.03;4949508;28;20228;-76
2023/08/07 02:56:21;;;;;;;5.33;3.60;;;;;;;18.42;87.05;94713.75;4919618;28;20254;-75
2023/08/07 02:58:47;;;;;;;4.57;3.77;;;;;;;18.43;86.70;94712.69;4932830;28;20233;-76
2023/08/07 03:01:13;;;;;;;4.23;3.20;;;;;;;18.27;87.37;94724.22;4947891;28;20271;-75
2023/08/07 03:03:38;;;;;;;5.30;3.40;;;;;;;18.32;87.66;94724.28;4941386;28;20343;-77
2023/08/07 03:06:04;;;;;;;4.07;3.17;;;;;;;18.20;87.75;94724.41;4952773;28;20728;-76
2023/08/07 03:08:29;;;;;;;4.00;3.40;;;;;;;18.26;87.13;94731.38;4948870;28;20307;-76
2023/08/07 03:10:56;;;;;;;4.03;3.63;;;;;;;18.20;87.04;94732.38;4950204;28;20229;-76
2023/08/07 03:13:22;;;;;;;4.03;3.37;;;;;;;18.26;86.56;94736.69;4949818;28;20229;-77
2023/08/07 03:15:49;;;;;;;5.97;3.50;;;;;;;18.23;86.97;94726.56;4927001;28;20259;-76
2023/08/07 03:18:18;;;;;;;3.73;3.30;;;;;;;18.35;86.43;94737.81;4938202;28;20740;-77
2023/08/07 03:20:45;;;;;;;4.97;3.60;;;;;;;18.38;86.40;94739.16;4964843;28;20240;-76
2023/08/07 03:23:10;;;;;;;4.27;3.47;;;;;;;18.32;86.02;94743.59;4930208;28;20297;-76
2023/08/07 03:25:36;;;;;;;4.13;3.53;;;;;;;18.24;86.50;94748.56;4936186;28;20244;-76
2023/08/07 03:28:01;;;;;;;4.07;3.40;;;;;;;18.35;86.25;94753.72;4954680;28;20244;-76
2023/08/07 03:30:27;;;;;;;4.80;3.27;;;;;;;18.34;85.30;94752.09;4967820;28;20245;-75
2023/08/07 03:32:52;;;;;;;4.20;3.30;;;;;;;18.23;86.41;94758.38;4928865;28;20264;-76
2023/08/07 03:35:18;;;;;;;4.63;3.57;;;;;;;18.04;86.97;94754.47;4966250;28;20244;-75
2023/08/07 03:37:44;;;;;;;4.30;3.20;;;;;;;17.99;88.58;94765.00;4944827;28;20324;-76
2023/08/07 03:40:09;;;;;;;5.07;3.50;;;;;;;17.95;88.53;94771.84;4946545;28;20243;-76
2023/08/07 03:42:35;;;;;;;4.50;3.50;;;;;;;18.08;88.48;94779.38;4947302;28;20311;-75
2023/08/07 03:45:01;;;;;;;6.67;3.43;;;;;;;18.01;87.99;94776.13;4951344;28;20224;-77
2023/08/07 03:47:27;;;;;;;4.87;3.50;;;;;;;18.13;86.28;94788.19;4971730;28;20283;-76
2023/08/07 03:49:52;;;;;;;3.93;3.33;;;;;;;18.08;87.11;94788.16;4933780;28;20315;-76
2023/08/07 03:52:18;;;;;;;4.67;3.67;;;;;;;18.22;87.16;94785.94;4948534;28;20304;-76
2023/08/07 03:54:43;;;;;;;3.73;3.40;;;;;;;18.13;86.58;94795.34;4948567;28;20247;-75
2023/08/07 03:57:10;;;;;;;5.23;3.43;;;;;;;17.98;87.36;94781.97;4940565;28;20629;-76
2023/08/07 03:59:36;;;;;;;4.60;3.70;;;;;;;18.24;86.37;94786.47;4950402;28;20304;-75
2023/08/07 04:02:01;;;;;;;4.67;3.63;;;;;;;18.31;85.69;94780.97;4949922;28;20802;-76
2023/08/07 04:04:27;;;;;;;6.50;3.60;;;;;;;18.38;84.27;94785.00;4936695;28;20232;-76
2023/08/07 04:06:52;;;;;;;4.47;3.13;;;;;;;18.43;83.64;94789.56;4950463;28;20235;-77
2023/08/07 04:09:18;;;;;;;4.70;3.30;;;;;;;18.43;83.96;94795.66;4953149;28;20374;-76
2023/08/07 04:11:43;;;;;;;3.90;3.37;;;;;;;18.40;83.80;94798.00;4952172;28;20275;-78
2023/08/07 04:14:09;;;;;;;7.17;3.33;;;;;;;18.41;84.01;94805.72;4952450;28;20229;-76
2023/08/07 04:16:36;;;;;;;3.47;3.13;;;;;;;18.38;83.26;94805.41;4941790;28;20244;-77
2023/08/07 04:19:02;;;;;;;3.70;3.30;;;;;;;18.27;83.86;94803.72;4992337;28;20237;-77
2023/08/07 04:21:27;;;;;;;3.30;3.00;;;;;;;18.15;84.00;94809.13;4938452;28;20246;-76
2023/08/07 04:23:53;;;;;;;4.03;3.10;;;;;;;18.00;84.79;94812.44;4950562;28;21000;-77
2023/08/07 04:26:18;;;;;;;4.30;3.00;;;;;;;18.07;84.68;94809.59;4964118;28;20229;-75
2023/08/07 04:28:44;;;;;;;5.07;3.27;;;;;;;18.17;83.82;94817.66;4949182;28;20228;-76
2023/08/07 04:31:09;;;;;;;4.20;3.17;;;;;;;18.21;84.15;94821.41;4939021;28;20236;-78
2023/08/07 04:33:36;;;;;;;4.07;3.10;;;;;;;18.34;83.86;94817.56;4953143;28;20690;-74
2023/08/07 04:36:01;;;;;;;5.80;3.30;;;;;;;18.38;83.31;94824.75;4979128;28;20233;-76
2023/08/07 04:38:27;;;;;;;4.40;3.10;;;;;;;18.40;83.71;94821.84;4920595;29;20294;-76
2023/08/07 04:40:53;;;;;;;4.17;2.93;;;;;;;18.32;83.90;94827.63;4928575;29;20245;-76
2023/08/07 04:43:21;;;;;;;4.57;3.40;;;;;;;18.36;83.14;94826.88;4934342;29;20297;-76
2023/08/07 04:45:47;;;;;;;4.00;2.80;;;;;;;18.27;82.86;94823.03;4930222;29;20273;-77
2023/08/07 04:48:13;;;;;;;4.47;3.20;;;;;;;18.21;83.11;94829.34;4916677;28;20260;-77
2023/08/07 04:50:38;;;;;;;4.50;3.00;;;;;;;18.40;82.56;94833.25;4935098;29;20239;-77
2023/08/07 04:53:04;;;;;;;4.40;3.10;;;;;;;18.48;83.06;94838.16;4948802;28;20238;-78
2023/08/07 04:55:30;;;;;;;7.47;3.20;;;;;;;18.37;82.55;94823.16;4942470;28;21116;-76
2023/08/07 04:57:56;;;;;;;3.23;2.90;;;;;;;18.33;82.82;94819.41;4970135;28;20261;-76
2023/08/07 05:00:22;;;;;;;3.63;2.70;;;;;;;18.42;81.59;94825.06;4932132;29;20784;-76
2023/08/07 05:02:50;;;;;;;2.93;2.67;;;;;;;18.48;81.93;94819.59;4931899;28;20324;-75
2023/08/07 05:05:17;;;;;;;3.03;2.73;;;;;;;18.37;82.57;94820.50;4987689;28;20236;-77
2023/08/07 05:07:42;;;;;;;4.33;3.07;;;;;;;18.48;82.28;94814.31;4934199;28;20292;-76
2023/08/07 05:10:09;;;;;;;4.60;2.70;;;;;;;18.43;82.00;94814.22;4929280;29;20229;-77
2023/08/07 05:12:34;;;;;;;4.37;2.93;;;;;;;18.46;80.98;94816.38;4928526;29;20252;-75
2023/08/07 05:15:00;;;;;;;3.93;3.03;;;;;;;18.65;81.67;94807.00;5033946;28;20239;-76
2023/08/07 05:17:25;;;;;;;3.50;3.17;;;;;;;19.05;80.19;94808.41;4950998;28;20725;-75
2023/08/07 05:19:51;;;;;;;3.60;3.00;;;;;;;19.18;79.84;94802.66;4942733;28;20241;-77
2023/08/07 05:22:16;;;;;;;7.10;3.30;;;;;;;19.17;79.87;94807.19;4935306;28;20240;-76
2023/08/07 05:24:43;;;;;;;4.63;3.00;;;;;;;19.18;77.87;94813.25;4964297;28;20232;-75
2023/08/07 05:27:09;;;;;;;3.40;2.90;;;;;;;20.46;73.56;94801.16;4964332;28;20232;-77
2023/08/07 05:29:42;;;;;;;2.93;2.67;;;;;;;21.65;67.90;94806.72;4962181;28;20929;-78
2023/08/07 05:32:08;;;;;;;3.40;2.40;;;;;;;21.46;68.29;94819.81;4938612;28;20386;-77
2023/08/07 05:34:34;;;;;;;5.10;2.67;;;;;;;20.68;70.54;94815.78;4934994;28;20289;-79
2023/08/07 05:36:59;;;;;;;4.23;2.90;;;;;;;20.54;71.56;94814.72;4940333;28;20317;-76
2023/08/07 05:39:25;;;;;;;5.68;2.90;;;;;;;21.40;68.39;94814.75;4949348;28;20235;-77
2023/08/07 05:41:53;;;;;;;3.35;2.60;;;;;;;20.75;70.21;94813.66;4943817;28;20240;-77
2023/08/07 05:44:19;;;;;;;4.40;3.00;;;;;;;20.43;72.46;94815.78;4937731;28;20261;-78
2023/08/07 05:46:44;;;;;;;2.67;2.47;;;;;;;20.43;72.42;94817.63;4950467;28;20250;-79
2023/08/07 05:49:10;;;;;;;3.50;2.47;;;;;;;20.12;74.18;94812.19;4943646;28;20228;-77
2023/08/07 05:51:35;;;;;;;3.35;2.70;;;;;;;20.15;73.71;94819.66;4953625;28;20233;-77
2023/08/07 05:54:01;;;;;;;4.10;3.03;;;;;;;19.98;73.16;94810.28;4936323;28;20239;-77
2023/08/07 05:56:26;;;;;;;3.58;2.90;;;;;;;20.09;74.10;94812.72;4930774;28;20726;-78
2023/08/07 05:58:51;;;;;;;3.10;2.80;;;;;;;19.94;73.98;94819.84;4924924;28;20240;-79
2023/08/07 06:01:17;;;;;;;3.75;2.90;;;;;;;19.61;74.54;94818.34;4935016;28;20233;-76
2023/08/07 06:03:43;;;;;;;4.83;2.93;;;;;;;19.69;75.33;94807.25;4950114;28;20383;-77
2023/08/07 06:06:08;;;;;;;6.00;3.00;;;;;;;19.56;74.98;94812.22;4950199;28;20240;-77
2023/08/07 06:08:34;;;;;;;3.30;2.78;;;;;;;19.58;74.27;94813.56;4946866;28;20236;-77
2023/08/07 06:11:04;;;;;;;4.47;3.00;;;;;;;19.61;74.64;94807.72;4947677;28;21633;-77
2023/08/07 06:13:30;;;;;;;5.17;2.90;;;;;;;19.81;74.53;94810.50;4927540;28;20271;-77
2023/08/07 06:15:56;;;;;;;3.80;2.60;;;;;;;19.80;73.29;94808.09;4936850;28;20236;-79
2023/08/07 06:18:21;;;;;;;4.73;2.70;;;;;;;19.82;73.26;94804.09;4947603;28;20241;-77
2023/08/07 06:20:47;;;;;;;2.80;2.60;;;;;;;19.77;72.60;94801.44;4931214;28;20352;-76
2023/08/07 06:23:13;;;;;;;3.27;2.60;;;;;;;19.72;72.79;94801.41;4932814;28;20241;-77
2023/08/07 06:25:38;;;;;;;2.97;2.33;;;;;;;19.84;72.72;94795.88;4950549;28;20251;-77
2023/08/07 06:28:04;;;;;;;4.87;2.83;;;;;;;19.97;73.32;94798.84;4949801;28;20675;-76
2023/08/07 06:30:31;;;;;;;4.20;3.10;;;;;;;20.07;73.01;94798.91;4937845;28;20237;-77
2023/08/07 06:32:56;;;;;;;4.93;2.50;;;;;;;20.02;71.45;94795.41;4944215;28;20233;-77
2023/08/07 06:35:22;;;;;;;4.27;2.70;;;;;;;19.94;71.68;94796.72;4930981;28;20236;-75
2023/08/07 06:37:48;;;;;;;3.47;2.60;;;;;;;20.09;71.68;94795.97;4943075;28;20232;-77
2023/08/07 06:40:13;;;;;;;2.93;2.20;;;;;;;20.10;70.51;94795.72;4939700;28;20306;-76
2023/08/07 06:42:39;;;;;;;4.67;2.40;;;;;;;20.29;69.97;94804.03;4958157;28;20275;-76
2023/08/07 06:45:06;;;;;;;4.70;2.53;;;;;;;20.26;70.64;94807.22;4942449;28;20228;-75
2023/08/07 06:47:31;;;;;;;3.43;2.30;;;;;;;20.11;69.48;94807.13;4950969;28;20613;-76
2023/08/07 06:49:57;;;;;;;3.27;1.80;;;;;;;20.10;65.57;94808.22;4953312;28;20240;-77
2023/08/07 06:52:22;;;;;;;2.60;1.80;;;;;;;20.01;67.44;94818.53;4934472;28;20233;-75
2023/08/07 06:54:48;;;;;;;2.10;1.70;;;;;;;19.97;66.61;94814.78;4931654;28;20275;-76
2023/08/07 06:57:14;;;;;;;2.30;2.10;;;;;;;20.09;67.70;94814.56;4949885;28;20243;-77
2023/08/07 06:59:39;;;;;;;1.90;1.80;;;;;;;20.41;67.06;94811.78;4938625;28;20317;-75
2023/08/07 07:02:05;;;;;;;2.60;1.83;;;;;;;20.28;65.80;94817.56;4952811;28;20319;-76
2023/08/07 07:04:31;;;;;;;1.93;1.73;;;;;;;20.40;66.50;94818.13;4951623;28;20248;-76
2023/08/07 07:06:56;;;;;;;2.20;2.00;;;;;;;20.43;64.91;94820.28;4952746;28;21006;-75
2023/08/07 07:09:22;;;;;;;2.73;1.70;;;;;;;20.50;64.55;94821.63;4941839;28;20236;-76
2023/08/07 07:11:48;;;;;;;2.63;2.00;;;;;;;20.49;65.76;94813.94;4950252;28;20266;-76
2023/08/07 07:14:13;;;;;;;2.30;2.10;;;;;;;20.41;66.91;94812.56;4953347;28;20244;-77
2023/08/07 07:16:39;;;;;;;2.40;2.20;;;;;;;20.38;67.09;94809.63;4934543;28;20749;-77
2023/08/07 07:19:08;;;;;;;2.67;2.10;;;;;;;20.37;68.23;94811.47;4968221;28;20236;-75
2023/08/07 07:21:33;;;;;;;4.07;2.10;;;;;;;20.38;66.58;94806.97;4925025;28;20254;-76
2023/08/07 07:23:59;;;;;;;4.17;1.90;;;;;;;20.46;65.81;94803.81;4967848;28;20228;-75
2023/08/07 07:26:25;;;;;;;2.10;1.90;;;;;;;20.57;65.47;94802.75;4935658;28;20236;-75
2023/08/07 07:28:51;;;;;;;4.33;1.83;;;;;;;20.78;65.52;94801.72;4944512;28;20236;-77
2023/08/07 07:31:16;;;;;;;2.27;2.00;;;;;;;20.83;65.84;94796.38;4940549;28;20244;-76
2023/08/07 07:33:42;;;;;;;2.10;1.90;;;;;;;20.78;64.63;94802.50;4938112;28;20244;-75
2023/08/07 07:36:13;;;;;;;2.40;2.00;;;;;;;20.71;64.19;94796.66;4969808;28;20236;-75
2023/08/07 07:38:38;;;;;;;1.90;1.80;;;;;;;20.81;63.83;94801.19;4950071;28;20881;-75
2023/08/07 07:41:04;;;;;;;3.23;2.00;;;;;;;21.01;63.18;94795.06;4948564;28;20260;-75
2023/08/07 07:43:29;;;;;;;1.97;1.77;;;;;;;21.08;63.66;94799.09;4936035;28;20236;-75
2023/08/07 07:45:55;;;;;;;1.90;1.70;;;;;;;21.04;62.50;94808.63;4950327;28;20633;-76
2023/08/07 07:48:20;;;;;;;2.70;2.00;;;;;;;20.99;60.89;94800.66;4957562;28;20267;-77
2023/08/07 07:50:46;;;;;;;4.30;2.10;;;;;;;21.13;62.30;94796.44;4942489;28;20240;-76
2023/08/07 07:53:11;;;;;;;3.47;2.17;;;;;;;21.26;62.38;94798.53;4938733;28;20313;-76
2023/08/07 07:55:37;;;;;;;2.00;1.80;;;;;;;21.29;61.20;94803.31;4933760;28;20240;-75
2023/08/07 07:58:03;;;;;;;3.40;1.90;;;;;;;21.23;61.69;94800.94;4954444;28;21271;-75
2023/08/07 08:00:28;;;;;;;2.13;1.93;;;;;;;21.26;61.77;94798.53;4948546;28;20240;-76
2023/08/07 08:02:54;;;;;;;2.63;1.90;;;;;;;21.35;61.13;94801.47;4932045;28;20326;-75
2023/08/07 08:05:20;;;;;;;2.10;1.80;;;;;;;21.43;61.56;94798.22;4936926;28;20244;-76
2023/08/07 08:07:45;;;;;;;2.07;1.73;;;;;;;21.46;60.48;94792.38;4938202;28;20236;-76
2023/08/07 08:10:13;;;;;;;2.53;1.90;;;;;;;21.48;58.62;94798.22;4946535;28;20614;-76
2023/08/07 08:12:38;;;;;;;2.92;2.20;;;;;;;21.50;58.97;94801.41;4960892;28;20241;-76
2023/08/07 08:15:04;;;;;;;2.83;1.90;;;;;;;21.64;57.93;94807.00;4946041;28;20643;-76
2023/08/07 08:17:30;;;;;;;2.97;1.73;;;;;;;21.62;57.48;94795.78;4949244;28;20322;-77
2023/08/07 08:19:56;;;;;;;2.30;1.67;;;;;;;21.83;57.43;94790.13;4939462;28;20886;-77
2023/08/07 08:22:21;;;;;;;2.00;1.70;;;;;;;21.87;55.85;94795.75;4946630;28;20301;-77
2023/08/07 08:24:47;;;;;;;2.33;1.70;;;;;;;21.85;55.66;94789.91;4938025;28;20740;-75
2023/08/07 08:27:13;;;;;;;1.67;1.45;;;;;;;21.93;57.11;94781.31;4934937;28;20236;-77
2023/08/07 08:29:38;;;;;;;2.90;1.60;;;;;;;21.97;55.93;94785.06;4951379;28;20638;-75
2023/08/07 08:32:04;;;;;;;3.58;1.70;;;;;;;22.16;56.63;94785.22;4951715;28;20716;-76
2023/08/07 08:34:30;;;;;;;2.53;1.67;;;;;;;22.17;55.67;94782.28;4951671;28;21084;-77
2023/08/07 08:36:55;;;;;;;2.45;1.67;;;;;;;22.31;55.91;94788.59;4936038;28;20240;-78
2023/08/07 08:39:21;;;;;;;2.28;1.40;;;;;;;22.42;56.55;94774.16;4934630;28;20310;-76
2023/08/07 08:41:50;;;;;;;2.95;1.65;;;;;;;22.47;55.13;94773.31;4942183;28;20248;-77
2023/08/07 08:44:16;;;;;;;2.83;1.70;;;;;;;22.55;55.41;94772.72;4944741;28;20262;-76
2023/08/07 08:46:42;;;;;;;1.80;1.50;;;;;;;22.64;55.03;94779.09;4951686;28;20245;-77
2023/08/07 08:49:07;;;;;;;2.92;1.70;;;;;;;22.75;54.01;94788.63;4946202;28;20236;-75
2023/08/07 08:51:33;;;;;;;2.10;1.67;;;;;;;22.87;54.54;94780.25;4966929;28;20241;-76
2023/08/07 08:53:58;;;;;;;1.92;1.50;;;;;;;22.82;54.24;94780.28;4938329;28;20259;-77
2023/08/07 08:56:24;;;;;;;3.00;1.60;;;;;;;22.94;55.88;94773.53;4937791;28;20240;-77
2023/08/07 08:58:52;;;;;;;2.35;1.70;;;;;;;22.94;52.33;94770.06;4935852;28;20229;-77
2023/08/07 09:01:18;;;;;;;1.67;1.58;;;;;;;23.03;54.64;94761.16;4936752;28;20232;-77
2023/08/07 09:03:45;;;;;;;2.70;1.65;;;;;;;23.10;53.83;94753.63;4950871;28;20240;-77
2023/08/07 09:06:10;;;;;;;2.80;1.90;;;;;;;23.25;53.74;94758.03;4943693;28;20241;-77
2023/08/07 09:08:36;;;;;;;2.90;1.80;;;;;;;23.33;53.51;94765.44;4930246;28;20236;-76
2023/08/07 09:11:01;;;;;;;2.35;1.70;;;;;;;23.49;53.34;94771.44;4940713;28;20225;-75
2023/08/07 09:13:27;;;;;;;2.45;1.80;;;;;;;23.43;52.64;94768.81;4938327;28;20282;-76
2023/08/07 09:15:52;;;;;;;1.90;1.60;;;;;;;23.52;53.59;94761.00;4949958;28;20244;-77
2023/08/07 09:18:19;;;;;;;2.70;1.52;;;;;;;23.56;51.96;94761.19;4952845;28;20249;-75
2023/08/07 09:20:45;;;;;;;3.20;1.60;;;;;;;23.50;52.46;94757.78;4952148;28;20378;-77
2023/08/07 09:23:11;;;;;;;2.88;1.60;;;;;;;23.68;52.50;94753.59;4953477;28;20329;-77
2023/08/07 09:25:36;;;;;;;3.10;1.70;;;;;;;23.65;51.97;94760.28;4944653;28;20236;-76
2023/08/07 09:28:05;;;;;;;2.47;1.60;;;;;;;23.59;53.00;94755.31;4953902;28;20236;-77
2023/08/07 09:30:32;;;;;;;3.10;1.70;;;;;;;23.65;53.06;94736.25;4951222;28;20606;-76
2023/08/07 09:32:58;;;;;;;2.25;1.73;;;;;;;23.68;51.51;94742.91;4933837;28;20709;-76
2023/08/07 09:35:23;;;;;;;2.67;1.70;;;;;;;24.02;53.38;94739.00;4949443;28;20297;-76
2023/08/07 09:37:50;;;;;;;2.58;1.80;;;;;;;23.96;52.09;94740.13;4934507;28;20244;-77
2023/08/07 09:40:16;;;;;;;3.28;1.90;;;;;;;23.90;51.88;94749.31;4927173;28;20245;-77
2023/08/07 09:42:41;;;;;;;3.47;1.90;;;;;;;23.97;52.22;94740.94;4934974;28;20900;-77
2023/08/07 09:45:26;;;;;;;3.50;2.00;;;;;;;23.95;53.17;94740.44;4958621;28;20236;-77
2023/08/07 09:48:06;;;;;;;2.00;1.80;;;;;;;24.10;51.50;94734.91;4948534;28;20728;-75
2023/08/07 09:50:31;;;;;;;2.10;1.90;;;;;;;24.43;51.77;94735.78;4952121;28;20237;-76
2023/08/07 09:53:00;;;;;;;2.10;1.90;;;;;;;24.61;49.90;94732.31;4957080;28;20290;-77
2023/08/07 09:55:26;;;;;;;2.90;1.80;;;;;;;24.57;50.33;94737.44;4928092;28;21031;-78
2023/08/07 09:57:51;;;;;;;3.13;1.70;;;;;;;24.59;50.79;94731.81;4950147;28;20233;-77
2023/08/07 10:00:19;;;;;;;3.20;1.90;;;;;;;24.69;50.85;94737.00;4936941;28;20232;-76
2023/08/07 10:02:49;;;;;;;2.35;1.67;;;;;;;24.80;51.23;94727.75;4927611;28;20244;-77
2023/08/07 10:05:14;;;;;;;2.67;1.70;;;;;;;24.88;49.87;94737.00;4932923;28;20833;-77
2023/08/07 10:07:40;;;;;;;1.95;1.60;;;;;;;24.86;47.63;94736.50;4939169;28;20245;-76
2023/08/07 10:10:06;;;;;;;1.70;1.60;;;;;;;24.97;47.99;94728.00;4953123;28;20239;-77
2023/08/07 10:12:32;;;;;;;2.17;1.70;;;;;;;25.10;49.15;94737.94;4963266;28;20247;-79
2023/08/07 10:14:59;;;;;;;2.70;1.80;;;;;;;25.07;47.14;94733.19;4943376;28;20644;-77
2023/08/07 10:17:24;;;;;;;1.80;1.70;;;;;;;25.36;48.26;94727.59;4946125;28;20382;-78
2023/08/07 10:19:51;;;;;;;3.45;1.80;;;;;;;25.49;47.77;94729.50;4940136;28;20233;-76
2023/08/07 10:22:16;;;;;;;2.10;1.90;;;;;;;25.55;47.23;94733.69;4947962;28;20233;-77
2023/08/07 10:24:43;;;;;;;3.33;1.90;;;;;;;25.60;46.53;94735.47;4952584;28;20232;-77
2023/08/07 10:27:09;;;;;;;4.25;1.90;;;;;;;25.76;45.62;94729.50;4954358;28;20240;-77
2023/08/07 10:33:30;;;;;;;7.13;1.80;;;;;;;25.61;46.85;94745.88;4951254;28;20243;-76
2023/08/07 10:35:57;;;;;;;2.28;1.83;;;;;;;25.93;46.71;94736.94;4969906;28;20774;-77
2023/08/07 10:38:23;;;;;;;3.95;2.15;;;;;;;25.83;44.96;94739.84;4928014;28;20233;-77
2023/08/07 10:41:01;;;;;;;2.42;1.80;;;;;;;25.85;46.01;94727.72;4945310;28;20221;-75
2023/08/07 10:43:27;;;;;;;2.53;2.25;;;;;;;25.76;44.69;94723.34;4970546;28;20296;-77
2023/08/07 10:45:53;;;;;;;2.05;1.80;;;;;;;25.82;46.03;94722.13;4954161;28;20229;-77
2023/08/07 10:48:20;;;;;;;3.08;1.83;;;;;;;25.77;45.77;94725.72;4940247;28;20236;-76
2023/08/07 10:50:54;;;;;;;2.58;1.90;;;;;;;26.00;44.95;94723.94;4944301;28;20232;-77
2023/08/07 10:53:21;;;;;;;2.33;1.80;;;;;;;26.02;45.80;94719.06;4951609;28;20239;-75
2023/08/07 10:55:47;;;;;;;2.08;1.88;;;;;;;25.95;45.73;94721.34;4953451;28;20327;-78
2023/08/07 10:58:54;;;;;;;2.63;1.70;;;;;;;25.97;45.11;94713.78;4944377;28;20228;-77
2023/08/07 11:01:35;;;;;;;2.25;1.90;;;;;;;25.90;46.06;94714.19;4954923;28;20762;-77
2023/08/07 11:04:10;;;;;;;1.95;1.83;;;;;;;25.86;45.67;94709.75;4936873;28;21372;-77
2023/08/07 11:06:36;;;;;;;2.00;1.75;;;;;;;25.98;44.66;94704.66;4948064;28;20244;-75
2023/08/07 11:09:04;;;;;;;4.00;2.15;;;;;;;26.07;43.90;94713.56;4938340;28;20392;-78
2023/08/07 11:11:39;;;;;;;2.95;2.03;;;;;;;26.04;44.79;94698.06;4944671;28;20248;-77
2023/08/07 11:14:06;;;;;;;3.17;1.90;;;;;;;26.41;43.79;94697.03;4935360;29;20790;-76
2023/08/07 11:16:31;;;;;;;2.00;1.80;;;;;;;26.46;45.30;94699.59;4949531;28;20247;-79
2023/08/07 11:18:57;;;;;;;2.20;1.80;;;;;;;26.40;43.27;94696.22;4937673;28;20229;-78
2023/08/07 11:21:22;;;;;;;3.03;1.90;;;;;;;26.49;44.31;94685.53;4947150;28;20236;-76
2023/08/07 11:23:49;;;;;;;4.32;1.90;;;;;;;26.32;42.31;94683.50;4948674;28;20233;-77
2023/08/07 11:26:14;;;;;;;3.45;2.17;;;;;;;26.55;43.86;94676.28;4940155;28;20238;-77
2023/08/07 11:28:40;;;;;;;4.97;2.00;;;;;;;26.41;43.24;94672.88;4937095;28;20983;-77
2023/08/07 11:31:05;;;;;;;2.17;1.80;;;;;;;25.94;44.88;94676.81;4936357;28;20241;-75
2023/08/07 11:33:31;;;;;;;2.63;2.00;;;;;;;26.15;45.13;94675.34;4946899;28;20237;-76